createdAt,value
2018-06-25T00:02:27.583Z,2.10
2018-06-25T00:04:56.232Z,1.60
2018-06-25T00:07:25.041Z,1.70
2018-06-25T00:09:53.639Z,1.53
2018-06-25T00:12:22.271Z,1.50
2018-06-25T00:14:51.211Z,1.43
2018-06-25T00:17:20.257Z,1.30
2018-06-25T00:19:49.284Z,1.33
2018-06-25T00:22:18.361Z,1.10
2018-06-25T00:24:47.071Z,1.50
2018-06-25T00:27:15.739Z,1.07
2018-06-25T00:29:44.740Z,1.10
2018-06-25T00:32:13.482Z,1.47
2018-06-25T00:34:42.449Z,1.30
2018-06-25T00:37:11.529Z,1.50
2018-06-25T00:39:40.883Z,1.20
2018-06-25T00:42:09.939Z,1.23
2018-06-25T00:44:38.984Z,1.30
2018-06-25T00:47:08.019Z,1.50
2018-06-25T00:49:36.746Z,1.70
2018-06-25T00:52:05.708Z,1.37
2018-06-25T00:54:34.787Z,1.60
2018-06-25T00:57:03.735Z,1.40
2018-06-25T00:59:37.903Z,1.47
2018-06-25T01:02:08.670Z,1.77
2018-06-25T01:04:37.761Z,1.60
2018-06-25T01:07:06.654Z,1.23
2018-06-25T01:09:35.318Z,1.10
2018-06-25T01:12:04.317Z,1.50
2018-06-25T01:14:33.360Z,1.50
2018-06-25T01:17:02.500Z,1.47
2018-06-25T01:19:31.248Z,1.30
2018-06-25T01:22:00.203Z,1.27
2018-06-25T01:24:29.275Z,1.30
2018-06-25T01:26:58.095Z,1.43
2018-06-25T01:29:27.006Z,1.30
2018-06-25T01:32:02.319Z,1.77
2018-06-25T01:34:31.396Z,1.50
2018-06-25T01:37:00.887Z,1.50
2018-06-25T01:39:29.996Z,1.40
2018-06-25T01:41:58.878Z,1.50
2018-06-25T01:44:27.847Z,1.63
2018-06-25T01:46:56.787Z,1.40
2018-06-25T01:49:25.439Z,1.30
2018-06-25T01:51:54.258Z,1.50
2018-06-25T01:54:23.146Z,1.70
2018-06-25T01:56:52.111Z,1.47
2018-06-25T01:59:21.136Z,1.30
2018-06-25T02:01:50.297Z,1.30
2018-06-25T02:04:19.028Z,1.23
2018-06-25T02:06:47.991Z,1.60
2018-06-25T02:09:17.079Z,1.90
2018-06-25T02:11:46.127Z,1.43
2018-06-25T02:14:15.164Z,1.50
2018-06-25T02:16:44.280Z,1.37
2018-06-25T02:19:13.356Z,1.77
2018-06-25T02:21:42.079Z,1.10
2018-06-25T02:24:11.039Z,1.40
2018-06-25T02:26:40.072Z,1.60
2018-06-25T02:29:08.956Z,1.53
2018-06-25T02:31:37.931Z,1.43
2018-06-25T02:34:06.989Z,1.50
2018-06-25T02:36:36.041Z,1.40
2018-06-25T02:39:06.923Z,1.23
2018-06-25T02:41:36.044Z,1.50
2018-06-25T02:44:05.484Z,1.40
2018-06-25T02:46:34.262Z,1.73
2018-06-25T02:49:03.255Z,1.60
2018-06-25T02:51:32.439Z,1.33
2018-06-25T02:54:01.644Z,1.90
2018-06-25T02:56:30.712Z,1.70
2018-06-25T02:58:59.425Z,2.00
2018-06-25T03:01:28.383Z,2.20
2018-06-25T03:03:57.454Z,2.57
2018-06-25T03:06:26.588Z,2.77
2018-06-25T03:08:55.525Z,3.03
2018-06-25T03:11:24.911Z,3.90
2018-06-25T03:13:53.952Z,4.03
2018-06-25T03:16:22.654Z,3.87
2018-06-25T03:18:51.391Z,4.13
2018-06-25T03:21:20.015Z,4.27
2018-06-25T03:23:49.107Z,4.70
2018-06-25T03:26:18.144Z,4.63
2018-06-25T03:28:46.851Z,4.17
2018-06-25T03:31:15.479Z,4.13
2018-06-25T03:33:44.198Z,4.60
2018-06-25T03:36:13.135Z,4.33
2018-06-25T03:38:42.296Z,5.07
2018-06-25T03:41:11.024Z,5.13
2018-06-25T03:43:39.644Z,4.40
2018-06-25T03:46:08.603Z,5.03
2018-06-25T03:48:37.951Z,4.93
2018-06-25T03:51:06.646Z,5.23
2018-06-25T03:53:35.895Z,5.03
2018-06-25T03:56:05.264Z,5.30
2018-06-25T03:58:34.343Z,4.53
2018-06-25T04:01:03.106Z,4.50
2018-06-25T04:03:31.991Z,4.57
2018-06-25T04:06:00.724Z,4.47
2018-06-25T04:08:29.684Z,4.10
2018-06-25T04:10:58.747Z,3.47
2018-06-25T04:13:27.779Z,4.07
2018-06-25T04:15:56.378Z,3.90
2018-06-25T04:18:25.891Z,4.00
2018-06-25T04:20:54.952Z,3.30
2018-06-25T04:23:23.979Z,3.77
2018-06-25T04:25:53.013Z,3.20
2018-06-25T04:28:21.751Z,4.30
2018-06-25T04:30:50.359Z,3.40
2018-06-25T04:33:19.303Z,3.73
2018-06-25T04:35:48.369Z,3.40
2018-06-25T04:38:17.391Z,3.50
2018-06-25T04:40:46.111Z,2.87
2018-06-25T04:43:15.067Z,3.40
2018-06-25T04:45:44.118Z,3.00
2018-06-25T04:48:12.828Z,3.00
2018-06-25T04:50:41.459Z,2.50
2018-06-25T04:53:10.079Z,2.20
2018-06-25T04:55:38.697Z,2.17
2018-06-25T04:58:07.659Z,2.67
2018-06-25T05:00:36.704Z,2.20
2018-06-25T05:03:06.107Z,2.70
2018-06-25T05:05:35.051Z,2.57
2018-06-25T05:08:04.555Z,2.90
2018-06-25T05:10:33.623Z,2.80
2018-06-25T05:13:02.371Z,3.53
2018-06-25T05:15:30.974Z,2.93
2018-06-25T05:17:59.950Z,3.00
2018-06-25T05:20:28.702Z,3.43
2018-06-25T05:22:57.450Z,2.93
2018-06-25T05:25:26.424Z,2.67
2018-06-25T05:27:55.450Z,2.37
2018-06-25T05:30:24.059Z,2.37
2018-06-25T05:32:53.012Z,2.37
2018-06-25T05:35:21.730Z,2.70
2018-06-25T05:37:50.378Z,2.70
2018-06-25T05:40:19.328Z,2.10
2018-06-25T05:42:48.599Z,2.70
2018-06-25T05:45:17.327Z,2.40
2018-06-25T05:47:46.157Z,1.80
2018-06-25T05:50:15.104Z,1.90
2018-06-25T05:52:44.123Z,1.90
2018-06-25T05:55:13.158Z,2.07
2018-06-25T05:57:42.121Z,2.00
2018-06-25T06:00:10.947Z,2.20
2018-06-25T06:02:39.955Z,1.67
2018-06-25T06:05:08.900Z,1.90
2018-06-25T06:07:37.515Z,1.67
2018-06-25T06:10:06.735Z,2.00
2018-06-25T06:12:35.847Z,2.67
2018-06-25T06:15:04.944Z,2.70
2018-06-25T06:17:34.535Z,2.20
2018-06-25T06:20:03.736Z,2.27
2018-06-25T06:22:32.456Z,2.83
2018-06-25T06:25:01.208Z,2.77
2018-06-25T06:27:30.291Z,2.80
2018-06-25T06:29:59.735Z,3.00
2018-06-25T06:32:28.453Z,3.43
2018-06-25T06:34:57.426Z,2.70
2018-06-25T06:37:26.141Z,3.07
2018-06-25T06:39:55.124Z,3.37
2018-06-25T06:42:23.866Z,3.00
2018-06-25T06:44:52.813Z,3.37
2018-06-25T06:47:21.518Z,3.73
2018-06-25T06:49:50.146Z,3.23
2018-06-25T06:52:18.774Z,2.97
2018-06-25T06:54:47.724Z,2.80
2018-06-25T06:57:16.459Z,2.20
2018-06-25T06:59:45.095Z,3.20
2018-06-25T07:02:13.727Z,2.50
2018-06-25T07:04:42.702Z,2.47
2018-06-25T07:07:11.787Z,3.27
2018-06-25T07:09:40.535Z,2.00
2018-06-25T07:12:09.177Z,1.67
2018-06-25T07:14:37.815Z,2.10
2018-06-25T07:17:06.848Z,1.97
2018-06-25T07:19:35.553Z,2.20
2018-06-25T07:22:04.208Z,2.13
2018-06-25T07:24:33.007Z,2.17
2018-06-25T07:27:01.961Z,2.33
2018-06-25T07:29:30.718Z,1.73
2018-06-25T07:31:59.323Z,1.97
2018-06-25T07:34:28.272Z,2.10
2018-06-25T07:36:57.383Z,1.93
2018-06-25T07:39:26.103Z,1.97
2018-06-25T07:41:54.751Z,1.87
2018-06-25T07:44:23.362Z,2.07
2018-06-25T07:46:52.051Z,2.00
2018-06-25T07:49:21.624Z,1.70
2018-06-25T07:51:50.696Z,1.67
2018-06-25T07:54:19.750Z,2.20
2018-06-25T07:56:48.443Z,1.73
2018-06-25T07:59:17.053Z,2.40
2018-06-25T08:01:46.083Z,2.03
2018-06-25T08:04:15.245Z,2.30
2018-06-25T08:06:44.214Z,2.17
2018-06-25T08:09:13.175Z,2.00
2018-06-25T08:11:42.171Z,2.13
2018-06-25T08:14:11.189Z,2.10
2018-06-25T08:16:40.251Z,2.33
2018-06-25T08:19:09.447Z,1.90
2018-06-25T08:21:38.532Z,2.60
2018-06-25T08:24:07.945Z,2.23
2018-06-25T08:26:36.702Z,2.07
2018-06-25T08:29:05.568Z,2.33
2018-06-25T08:31:34.207Z,2.20
2018-06-25T08:34:02.875Z,2.03
2018-06-25T08:36:31.834Z,2.17
2018-06-25T08:39:00.661Z,2.40
2018-06-25T08:41:29.671Z,2.13
2018-06-25T08:43:58.695Z,1.90
2018-06-25T08:46:27.756Z,2.53
2018-06-25T08:48:56.476Z,2.10
2018-06-25T08:51:25.100Z,1.80
2018-06-25T08:53:54.061Z,2.00
2018-06-25T08:56:23.119Z,1.87
2018-06-25T08:58:51.843Z,2.30
2018-06-25T09:01:20.564Z,2.40
2018-06-25T09:03:49.292Z,2.17
2018-06-25T09:06:18.248Z,2.10
2018-06-25T09:08:46.950Z,2.20
2018-06-25T09:11:15.635Z,1.83
2018-06-25T09:13:44.920Z,2.00
2018-06-25T09:16:13.659Z,1.80
2018-06-25T09:18:42.727Z,1.80
2018-06-25T09:21:11.700Z,1.97
2018-06-25T09:23:40.735Z,1.93
2018-06-25T09:26:09.568Z,2.20
2018-06-25T09:28:38.180Z,2.63
2018-06-25T09:31:07.007Z,2.17
2018-06-25T09:33:36.127Z,2.10
2018-06-25T09:36:04.759Z,2.03
2018-06-25T09:38:33.409Z,1.90
2018-06-25T09:41:02.440Z,2.33
2018-06-25T09:43:31.084Z,2.10
2018-06-25T09:46:00.093Z,2.40
2018-06-25T09:48:28.750Z,1.97
2018-06-25T09:50:57.973Z,2.00
2018-06-25T09:53:26.681Z,2.40
2018-06-25T09:55:55.299Z,2.23
2018-06-25T09:58:24.295Z,2.20
2018-06-25T10:00:58.620Z,2.27
2018-06-25T10:03:27.720Z,2.07
2018-06-25T10:05:56.603Z,1.60
2018-06-25T10:08:25.307Z,1.50
2018-06-25T10:10:53.993Z,1.50
2018-06-25T10:13:22.898Z,1.60
2018-06-25T10:15:51.619Z,1.97
2018-06-25T10:18:20.258Z,1.47
2018-06-25T10:20:49.235Z,1.53
2018-06-25T10:23:17.972Z,1.60
2018-06-25T10:25:46.930Z,1.67
2018-06-25T10:28:16.124Z,1.50
2018-06-25T10:30:45.072Z,1.50
2018-06-25T10:33:13.738Z,1.50
2018-06-25T10:35:42.387Z,1.73
2018-06-25T10:38:11.044Z,1.90
2018-06-25T10:40:39.855Z,1.47
2018-06-25T10:43:08.831Z,1.60
2018-06-25T10:45:37.458Z,1.43
2018-06-25T10:48:06.236Z,1.60
2018-06-25T10:50:34.835Z,1.43
2018-06-25T10:53:03.511Z,1.93
2018-06-25T10:55:32.143Z,1.53
2018-06-25T10:58:00.779Z,1.67
2018-06-25T11:00:29.781Z,2.00
2018-06-25T11:02:58.494Z,1.93
2018-06-25T11:05:27.211Z,2.33
2018-06-25T11:07:55.868Z,2.30
2018-06-25T11:10:24.848Z,2.17
2018-06-25T11:12:53.592Z,2.53
2018-06-25T11:15:22.203Z,2.60
2018-06-25T11:17:50.877Z,2.23
2018-06-25T11:20:19.563Z,2.03
2018-06-25T11:22:48.192Z,2.50
2018-06-25T11:25:16.846Z,2.60
2018-06-25T11:27:45.485Z,2.10
2018-06-25T11:30:14.683Z,2.27
2018-06-25T11:32:43.394Z,2.30
2018-06-25T11:35:12.037Z,2.50
2018-06-25T11:37:40.951Z,2.07
2018-06-25T11:40:09.660Z,2.47
2018-06-25T11:42:38.274Z,2.63
2018-06-25T11:45:06.915Z,2.37
2018-06-25T11:47:36.008Z,2.40
2018-06-25T11:50:04.831Z,2.30
2018-06-25T11:52:33.618Z,2.70
2018-06-25T11:55:02.616Z,2.23
2018-06-25T11:57:31.678Z,2.57
2018-06-25T12:00:00.779Z,2.17
2018-06-25T12:02:29.473Z,2.13
2018-06-25T12:04:58.377Z,2.07
2018-06-25T12:07:27.443Z,2.30
2018-06-25T12:09:56.183Z,1.97
2018-06-25T12:12:25.194Z,1.77
2018-06-25T12:14:53.880Z,2.30
2018-06-25T12:17:22.611Z,2.27
2018-06-25T12:19:51.214Z,2.27
2018-06-25T12:22:19.798Z,2.77
2018-06-25T12:24:48.462Z,2.30
2018-06-25T12:27:17.065Z,2.75
2018-06-25T12:29:45.691Z,2.10
2018-06-25T12:32:14.395Z,1.80
2018-06-25T12:34:43.296Z,2.20
2018-06-25T12:37:12.012Z,1.80
2018-06-25T12:39:40.611Z,1.97
2018-06-25T12:42:09.576Z,1.80
2018-06-25T12:44:38.502Z,1.80
2018-06-25T12:47:07.440Z,1.73
2018-06-25T12:49:36.171Z,2.13
2018-06-25T12:52:04.830Z,2.00
2018-06-25T12:54:33.772Z,1.73
2018-06-25T12:57:02.860Z,1.93
2018-06-25T12:59:31.550Z,1.23
2018-06-25T13:02:00.524Z,1.70
2018-06-25T13:04:29.239Z,1.73
2018-06-25T13:06:58.496Z,1.80
2018-06-25T13:09:27.959Z,1.60
2018-06-25T13:11:56.701Z,1.70
2018-06-25T13:14:25.654Z,1.73
2018-06-25T13:16:54.490Z,1.63
2018-06-25T13:19:23.119Z,1.85
2018-06-25T13:21:51.879Z,1.45
2018-06-25T13:24:20.500Z,1.30
2018-06-25T13:26:49.444Z,1.47
2018-06-25T13:29:18.492Z,1.42
2018-06-25T13:31:47.547Z,1.70
2018-06-25T13:34:16.259Z,1.47
2018-06-25T13:36:45.235Z,1.47
2018-06-25T13:39:13.943Z,1.60
2018-06-25T13:41:42.593Z,1.50
2018-06-25T13:44:11.215Z,1.30
2018-06-25T13:46:40.195Z,1.60
2018-06-25T13:49:08.992Z,1.70
2018-06-25T13:51:38.135Z,1.50
2018-06-25T13:54:06.923Z,1.90
2018-06-25T13:56:35.572Z,1.65
2018-06-25T13:59:04.550Z,1.60
2018-06-25T14:01:33.123Z,1.50
2018-06-25T14:04:02.094Z,1.57
2018-06-25T14:06:30.818Z,1.95
2018-06-25T14:08:59.775Z,1.50
2018-06-25T14:11:28.843Z,1.60
2018-06-25T14:13:57.670Z,1.75
2018-06-25T14:16:26.724Z,1.98
2018-06-25T14:18:55.363Z,2.08
2018-06-25T14:21:24.368Z,2.00
2018-06-25T14:23:58.769Z,1.70
2018-06-25T14:26:32.965Z,1.50
2018-06-25T14:29:02.059Z,1.85
2018-06-25T14:31:30.791Z,1.65
2018-06-25T14:34:05.143Z,1.82
2018-06-25T14:36:34.059Z,2.00
2018-06-25T14:39:02.727Z,2.33
2018-06-25T14:41:31.733Z,1.70
2018-06-25T14:44:00.779Z,2.05
2018-06-25T14:46:29.821Z,1.90
2018-06-25T14:48:58.543Z,1.62
2018-06-25T14:51:27.753Z,1.90
2018-06-25T14:53:57.132Z,1.80
2018-06-25T14:56:26.158Z,2.10
2018-06-25T14:58:54.777Z,2.40
2018-06-25T15:01:23.768Z,2.23
2018-06-25T15:03:52.840Z,1.70
2018-06-25T15:06:21.899Z,2.30
2018-06-25T15:08:50.947Z,1.97
2018-06-25T15:11:19.987Z,1.73
2018-06-25T15:13:48.712Z,1.87
2018-06-25T15:16:17.699Z,1.90
2018-06-25T15:18:46.721Z,1.87
2018-06-25T15:21:15.479Z,1.80
2018-06-25T15:23:44.130Z,2.00
2018-06-25T15:26:12.748Z,2.00
2018-06-25T15:28:41.375Z,1.90
2018-06-25T15:31:10.370Z,1.80
2018-06-25T15:33:39.110Z,1.55
2018-06-25T15:36:08.114Z,2.10
2018-06-25T15:38:36.812Z,1.70
2018-06-25T15:41:05.835Z,1.98
2018-06-25T15:43:34.942Z,3.55
2018-06-25T15:46:03.710Z,2.02
2018-06-25T15:48:32.332Z,1.72
2018-06-25T15:51:01.347Z,1.52
2018-06-25T15:53:29.971Z,1.67
2018-06-25T15:55:58.905Z,1.45
2018-06-25T15:58:27.622Z,1.80
2018-06-25T16:00:56.236Z,1.98
2018-06-25T16:03:25.088Z,1.70
2018-06-25T16:05:54.048Z,1.95
2018-06-25T16:08:23.095Z,1.67
2018-06-25T16:10:52.183Z,2.17
2018-06-25T16:13:21.310Z,2.13
2018-06-25T16:15:50.008Z,2.27
2018-06-25T16:18:18.923Z,2.20
2018-06-25T16:20:47.555Z,1.67
2018-06-25T16:23:16.234Z,1.83
2018-06-25T16:25:45.212Z,1.90
2018-06-25T16:28:13.966Z,1.60
2018-06-25T16:30:42.931Z,1.80
2018-06-25T16:33:11.639Z,2.20
2018-06-25T16:35:40.474Z,1.50
2018-06-25T16:38:09.491Z,1.67
2018-06-25T16:40:38.335Z,1.60
2018-06-25T16:43:07.269Z,1.57
2018-06-25T16:45:36.211Z,1.90
2018-06-25T16:48:05.279Z,1.90
2018-06-25T16:50:33.992Z,2.00
2018-06-25T16:53:02.979Z,2.07
2018-06-25T16:55:31.683Z,1.80
2018-06-25T16:58:00.932Z,2.12
2018-06-25T17:00:29.660Z,2.13
2018-06-25T17:02:58.311Z,2.10
2018-06-25T17:05:27.264Z,1.90
2018-06-25T17:07:56.022Z,2.50
2018-06-25T17:10:24.984Z,2.20
2018-06-25T17:12:53.703Z,2.20
2018-06-25T17:17:57.915Z,2.15
2018-06-25T17:20:27.078Z,2.10
2018-06-25T17:22:56.369Z,1.73
2018-06-25T17:25:25.085Z,2.20
2018-06-25T17:27:54.049Z,2.27
2018-06-25T17:30:23.088Z,2.23
2018-06-25T17:32:51.840Z,2.00
2018-06-25T17:35:20.763Z,2.03
2018-06-25T17:37:49.795Z,2.60
2018-06-25T17:40:18.547Z,2.17
2018-06-25T17:42:47.226Z,2.40
2018-06-25T17:45:15.847Z,2.40
2018-06-25T17:47:44.466Z,2.40
2018-06-25T17:50:13.459Z,2.27
2018-06-25T17:52:42.186Z,1.90
2018-06-25T17:55:10.802Z,2.00
2018-06-25T17:57:39.427Z,2.03
2018-06-25T18:00:08.652Z,2.40
2018-06-25T18:02:37.368Z,2.50
2018-06-25T18:05:06.357Z,2.40
2018-06-25T18:07:35.072Z,2.10
2018-06-25T18:10:03.762Z,2.40
2018-06-25T18:12:32.415Z,2.50
2018-06-25T18:15:01.351Z,2.37
2018-06-25T18:17:30.083Z,2.40
2018-06-25T18:19:58.695Z,1.97
2018-06-25T18:22:27.379Z,2.60
2018-06-25T18:24:56.355Z,2.50
2018-06-25T18:27:25.087Z,2.10
2018-06-25T18:29:54.070Z,2.40
2018-06-25T18:32:23.121Z,2.20
2018-06-25T18:34:51.871Z,2.63
2018-06-25T18:37:20.563Z,2.50
2018-06-25T18:39:49.177Z,2.07
2018-06-25T18:42:17.827Z,2.20
2018-06-25T18:44:46.840Z,2.40
2018-06-25T18:47:15.507Z,2.10
2018-06-25T18:49:44.121Z,2.37
2018-06-25T18:52:13.428Z,2.20
2018-06-25T18:54:42.726Z,2.20
2018-06-25T18:57:11.478Z,2.17
2018-06-25T18:59:40.060Z,2.17
2018-06-25T19:02:09.059Z,1.87
2018-06-25T19:04:38.136Z,2.20
2018-06-25T19:07:06.896Z,3.30
2018-06-25T19:09:35.518Z,3.70
2018-06-25T19:12:04.199Z,4.00
2018-06-25T19:14:33.343Z,3.90
2018-06-25T19:17:02.408Z,3.90
2018-06-25T19:19:31.467Z,3.50
2018-06-25T19:22:00.172Z,2.60
2018-06-25T19:24:29.179Z,2.80
2018-06-25T19:26:58.396Z,2.90
2018-06-25T19:29:27.171Z,2.43
2018-06-25T19:31:56.120Z,2.70
2018-06-25T19:34:24.878Z,2.20
2018-06-25T19:36:53.522Z,2.40
2018-06-25T19:39:23.515Z,2.60
2018-06-25T19:41:52.191Z,2.37
2018-06-25T19:44:20.809Z,2.20
2018-06-25T19:46:49.815Z,2.37
2018-06-25T19:49:19.875Z,2.50
2018-06-25T19:51:49.563Z,2.80
2018-06-25T19:54:18.478Z,2.63
2018-06-25T19:56:47.283Z,2.60
2018-06-25T19:59:15.914Z,2.50
2018-06-25T20:01:44.911Z,2.57
2018-06-25T20:04:13.602Z,2.30
2018-06-25T20:06:42.235Z,3.00
2018-06-25T20:09:12.447Z,2.53
2018-06-25T20:11:41.821Z,2.83
2018-06-25T20:14:10.570Z,3.27
2018-06-25T20:16:39.536Z,3.47
2018-06-25T20:19:08.282Z,3.47
2018-06-25T20:21:36.920Z,4.40
2018-06-25T20:24:05.620Z,5.03
2018-06-25T20:26:34.605Z,5.63
2018-06-25T20:29:03.394Z,7.80
2018-06-25T20:31:32.036Z,8.83
2018-06-25T20:34:00.695Z,9.13
2018-06-25T20:39:07.131Z,10.40
2018-06-25T20:41:35.791Z,8.67
2018-06-25T20:44:04.758Z,9.27
2018-06-25T20:46:34.127Z,8.70
2018-06-25T20:49:03.131Z,11.27
2018-06-25T20:51:33.399Z,10.33
2018-06-25T20:54:02.138Z,10.23
2018-06-25T20:56:31.088Z,8.40
2018-06-25T20:59:00.211Z,8.00
2018-06-25T21:01:29.249Z,6.87
2018-06-25T21:03:57.946Z,6.70
2018-06-25T21:06:26.959Z,6.13
2018-06-25T21:08:55.708Z,4.73
2018-06-25T21:11:24.363Z,5.13
2018-06-25T21:13:53.369Z,4.50
2018-06-25T21:16:22.293Z,4.00
2018-06-25T21:18:51.244Z,4.57
2018-06-25T21:21:19.955Z,4.50
2018-06-25T21:23:48.928Z,3.67
2018-06-25T21:26:18.004Z,3.97
2018-06-25T21:28:47.099Z,3.37
2018-06-25T21:31:16.167Z,3.93
2018-06-25T21:33:45.288Z,3.70
2018-06-25T21:36:14.676Z,3.37
2018-06-25T21:38:43.760Z,3.97
2018-06-25T21:41:12.808Z,4.20
2018-06-25T21:43:41.845Z,4.63
2018-06-25T21:46:10.805Z,4.30
2018-06-25T21:48:39.512Z,5.30
2018-06-25T21:51:08.513Z,4.70
2018-06-25T21:53:37.231Z,4.80
2018-06-25T21:56:06.209Z,4.13
2018-06-25T21:58:34.941Z,4.00
2018-06-25T22:01:04.773Z,3.63
2018-06-25T22:03:34.066Z,3.70
2018-06-25T22:06:03.219Z,3.90
2018-06-25T22:08:32.251Z,4.13
2018-06-25T22:11:00.963Z,3.90
2018-06-25T22:13:29.883Z,3.70
2018-06-25T22:15:58.863Z,3.97
2018-06-25T22:18:27.687Z,3.80
2018-06-25T22:20:56.351Z,3.73
2018-06-25T22:23:24.988Z,3.73
2018-06-25T22:25:54.183Z,3.80
2018-06-25T22:28:23.508Z,4.07
2018-06-25T22:30:52.570Z,3.30
2018-06-25T22:33:21.337Z,3.37
2018-06-25T22:35:50.327Z,3.60
2018-06-25T22:38:19.096Z,3.90
2018-06-25T22:40:48.004Z,3.17
2018-06-25T22:43:16.889Z,3.57
2018-06-25T22:45:45.845Z,3.57
2018-06-25T22:48:14.577Z,3.87
2018-06-25T22:50:43.818Z,3.80
2018-06-25T22:53:12.875Z,3.10
2018-06-25T22:55:41.594Z,3.60
2018-06-25T22:58:10.556Z,3.43
2018-06-25T23:00:39.636Z,3.60
2018-06-25T23:03:08.591Z,3.50
2018-06-25T23:05:37.569Z,3.87
2018-06-25T23:08:06.624Z,3.60
2018-06-25T23:10:35.640Z,3.83
2018-06-25T23:13:04.425Z,3.33
2018-06-25T23:15:33.329Z,3.40
2018-06-25T23:18:02.392Z,3.70
2018-06-25T23:20:31.421Z,3.63
2018-06-25T23:23:00.488Z,3.83
2018-06-25T23:25:29.515Z,3.40
2018-06-25T23:27:58.219Z,3.93
2018-06-25T23:30:26.849Z,4.50
2018-06-25T23:32:55.783Z,3.73
2018-06-25T23:35:24.479Z,3.37
2018-06-25T23:37:53.447Z,4.33
2018-06-25T23:40:22.475Z,4.70
2018-06-25T23:42:51.207Z,4.73
2018-06-25T23:45:20.168Z,5.07
2018-06-25T23:47:48.870Z,5.67
2018-06-25T23:50:17.840Z,5.30
2018-06-25T23:52:46.593Z,5.90
2018-06-25T23:55:15.523Z,5.47
2018-06-25T23:57:44.319Z,4.97
